createdAt,value
2023-03-08T00:01:18.760Z,24.67
2023-03-08T00:03:47.042Z,21.30
2023-03-08T00:06:15.965Z,23.23
2023-03-08T00:08:44.004Z,25.35
2023-03-08T00:11:13.280Z,25.05
2023-03-08T00:13:41.670Z,22.73
2023-03-08T00:16:11.401Z,25.77
2023-03-08T00:18:39.180Z,25.80
2023-03-08T00:21:11.662Z,23.10
2023-03-08T00:23:39.751Z,20.33
2023-03-08T00:26:07.145Z,22.15
2023-03-08T00:28:34.582Z,24.88
2023-03-08T00:31:05.962Z,21.95
2023-03-08T00:33:34.065Z,23.73
2023-03-08T00:36:04.882Z,22.60
2023-03-08T00:38:35.443Z,23.60
2023-03-08T00:41:03.726Z,21.42
2023-03-08T00:43:33.249Z,21.13
2023-03-08T00:46:04.630Z,20.05
2023-03-08T00:48:32.264Z,23.50
2023-03-08T00:50:59.657Z,22.02
2023-03-08T00:53:27.224Z,19.35
2023-03-08T00:55:57.729Z,22.98
2023-03-08T00:58:28.321Z,20.88
2023-03-08T01:00:55.992Z,24.60
2023-03-08T01:03:24.424Z,24.85
2023-03-08T01:05:53.971Z,22.20
2023-03-08T01:08:22.345Z,21.17
2023-03-08T01:10:53.939Z,22.38
2023-03-08T01:13:25.070Z,19.85
2023-03-08T01:15:52.526Z,18.73
2023-03-08T01:18:19.928Z,20.05
2023-03-08T01:20:59.006Z,20.85
2023-03-08T01:23:26.868Z,22.17
2023-03-08T01:25:57.127Z,21.30
2023-03-08T01:28:25.806Z,22.17
2023-03-08T01:30:53.131Z,22.55
2023-03-08T01:33:21.628Z,21.42
2023-03-08T01:35:50.510Z,17.90
2023-03-08T01:38:17.989Z,19.85
2023-03-08T01:40:45.244Z,19.13
2023-03-08T01:43:23.724Z,15.80
2023-03-08T01:45:54.667Z,17.48
2023-03-08T01:48:35.194Z,17.88
2023-03-08T01:51:08.403Z,19.40
2023-03-08T01:53:38.052Z,18.45
2023-03-08T01:56:09.397Z,19.73
2023-03-08T01:58:38.010Z,17.35
2023-03-08T02:01:05.842Z,16.17
2023-03-08T02:03:33.834Z,17.65
2023-03-08T02:06:04.340Z,17.15
2023-03-08T02:08:33.304Z,18.58
2023-03-08T02:11:02.140Z,15.93
2023-03-08T02:13:30.335Z,16.27
2023-03-08T02:16:00.355Z,16.23
2023-03-08T02:18:28.536Z,17.10
2023-03-08T02:20:56.066Z,14.88
2023-03-08T02:23:26.024Z,16.33
2023-03-08T02:25:56.098Z,16.25
2023-03-08T02:28:26.159Z,14.85
2023-03-08T02:30:55.352Z,15.52
2023-03-08T02:33:23.291Z,13.10
2023-03-08T02:35:51.000Z,15.52
2023-03-08T02:38:20.402Z,16.63
2023-03-08T02:40:51.664Z,15.25
2023-03-08T02:43:19.465Z,12.88
2023-03-08T02:45:47.111Z,14.63
2023-03-08T02:48:15.737Z,13.32
2023-03-08T02:50:43.249Z,13.80
2023-03-08T02:53:11.069Z,15.20
2023-03-08T02:55:39.985Z,15.70
2023-03-08T02:58:11.295Z,13.27
2023-03-08T03:00:40.779Z,13.63
2023-03-08T03:03:08.533Z,15.40
2023-03-08T03:05:40.307Z,14.75
2023-03-08T03:08:08.398Z,14.75
2023-03-08T03:13:05.886Z,15.55
2023-03-08T03:15:33.835Z,13.25
2023-03-08T03:18:01.606Z,15.38
2023-03-08T03:20:28.933Z,13.18
2023-03-08T03:22:56.456Z,14.88
2023-03-08T03:25:28.936Z,14.88
2023-03-08T03:27:57.461Z,13.60
2023-03-08T03:30:28.201Z,15.38
2023-03-08T03:32:56.159Z,16.00
2023-03-08T03:35:28.134Z,15.00
2023-03-08T03:37:55.899Z,14.60
2023-03-08T03:40:23.510Z,15.32
2023-03-08T03:42:56.433Z,14.80
2023-03-08T03:45:24.797Z,15.88
2023-03-08T03:47:52.251Z,15.60
2023-03-08T03:50:20.063Z,15.32
2023-03-08T03:52:54.425Z,14.45
2023-03-08T03:55:22.366Z,14.02
2023-03-08T03:57:51.141Z,13.70
2023-03-08T04:00:19.651Z,13.60
2023-03-08T04:02:55.028Z,14.38
2023-03-08T04:05:22.683Z,12.95
2023-03-08T04:07:53.039Z,15.43
2023-03-08T04:10:23.800Z,14.18
2023-03-08T04:12:53.262Z,12.50
2023-03-08T04:15:22.309Z,14.02
2023-03-08T04:17:52.861Z,15.00
2023-03-08T04:20:23.311Z,13.23
2023-03-08T04:22:55.844Z,13.17
2023-03-08T04:25:29.987Z,12.73
2023-03-08T04:28:00.484Z,13.85
2023-03-08T04:30:30.169Z,12.27
2023-03-08T04:32:59.845Z,12.13
2023-03-08T04:35:34.676Z,13.18
2023-03-08T04:38:03.947Z,12.48
2023-03-08T04:40:31.371Z,11.77
2023-03-08T04:43:03.367Z,11.50
2023-03-08T04:45:36.853Z,11.10
2023-03-08T04:48:10.061Z,10.20
2023-03-08T04:50:39.518Z,11.45
2023-03-08T04:53:09.041Z,10.30
2023-03-08T04:55:38.222Z,9.55
2023-03-08T04:58:06.278Z,9.35
2023-03-08T05:00:33.786Z,9.73
2023-03-08T05:03:01.597Z,8.52
2023-03-08T05:05:29.506Z,9.45
2023-03-08T05:07:59.886Z,8.85
2023-03-08T05:10:27.750Z,9.68
2023-03-08T05:12:55.955Z,9.68
2023-03-08T05:15:23.801Z,8.15
2023-03-08T05:17:51.686Z,8.73
2023-03-08T05:20:19.337Z,8.65
2023-03-08T05:22:57.893Z,8.35
2023-03-08T05:25:32.000Z,9.07
2023-03-08T05:28:01.026Z,9.02
2023-03-08T05:30:28.488Z,9.40
2023-03-08T05:32:56.273Z,9.10
2023-03-08T05:35:23.702Z,8.50
2023-03-08T05:37:51.754Z,8.15
2023-03-08T05:40:19.513Z,7.88
2023-03-08T05:42:47.535Z,8.57
2023-03-08T05:45:16.257Z,7.72
2023-03-08T05:47:43.908Z,7.63
2023-03-08T05:50:12.443Z,8.57
2023-03-08T05:52:42.842Z,6.97
2023-03-08T05:55:14.852Z,7.13
2023-03-08T05:57:43.500Z,6.28
2023-03-08T06:00:12.173Z,6.25
2023-03-08T06:02:42.219Z,5.45
2023-03-08T06:05:10.230Z,6.97
2023-03-08T06:07:38.830Z,6.47
2023-03-08T06:10:11.606Z,6.03
2023-03-08T06:12:40.031Z,6.90
2023-03-08T06:15:12.214Z,5.97
2023-03-08T06:17:41.386Z,6.05
2023-03-08T06:20:10.141Z,6.85
2023-03-08T06:22:40.948Z,7.13
2023-03-08T06:25:09.135Z,6.68
2023-03-08T06:27:37.631Z,6.45
2023-03-08T06:30:13.268Z,6.53
2023-03-08T06:32:42.852Z,8.07
2023-03-08T06:35:11.078Z,7.50
2023-03-08T06:37:45.054Z,7.07
2023-03-08T06:40:13.713Z,6.85
2023-03-08T06:42:42.166Z,8.32
2023-03-08T06:45:14.009Z,7.40
2023-03-08T06:47:41.585Z,8.02
2023-03-08T06:50:10.604Z,8.10
2023-03-08T06:52:41.465Z,7.88
2023-03-08T06:55:10.500Z,7.90
2023-03-08T06:57:38.027Z,8.05
2023-03-08T07:00:06.245Z,8.75
2023-03-08T07:02:33.517Z,10.18
2023-03-08T07:05:00.866Z,7.25
2023-03-08T07:07:28.236Z,9.30
2023-03-08T07:09:55.651Z,8.68
2023-03-08T07:12:22.891Z,8.93
2023-03-08T07:14:53.494Z,9.35
2023-03-08T07:17:20.811Z,8.80
2023-03-08T07:19:48.262Z,7.80
2023-03-08T07:22:15.665Z,8.48
2023-03-08T07:24:43.057Z,8.48
2023-03-08T07:27:10.366Z,7.10
2023-03-08T07:29:37.872Z,8.30
2023-03-08T07:32:05.618Z,7.75
2023-03-08T07:34:33.022Z,7.60
2023-03-08T07:37:00.413Z,7.45
2023-03-08T07:39:27.876Z,6.82
2023-03-08T07:41:55.237Z,7.20
2023-03-08T07:44:22.707Z,7.80
2023-03-08T07:46:50.128Z,6.85
2023-03-08T07:49:17.405Z,6.82
2023-03-08T07:51:44.892Z,6.95
2023-03-08T07:54:13.196Z,6.25
2023-03-08T07:56:40.630Z,6.60
2023-03-08T07:59:08.049Z,7.03
2023-03-08T08:01:35.679Z,6.40
2023-03-08T08:04:04.122Z,6.63
2023-03-08T08:06:31.460Z,6.38
2023-03-08T08:08:58.750Z,6.05
2023-03-08T08:11:26.130Z,6.13
2023-03-08T08:13:53.788Z,6.43
2023-03-08T08:16:21.426Z,6.45
2023-03-08T08:18:48.748Z,6.28
2023-03-08T08:21:17.256Z,6.05
2023-03-08T08:23:45.049Z,6.38
2023-03-08T08:26:16.726Z,5.68
2023-03-08T08:28:47.286Z,5.93
2023-03-08T08:31:18.307Z,5.68
2023-03-08T08:33:45.716Z,6.15
2023-03-08T08:36:16.656Z,5.47
2023-03-08T08:38:46.305Z,4.70
2023-03-08T08:41:16.247Z,4.28
2023-03-08T08:43:45.466Z,3.83
2023-03-08T08:46:13.826Z,3.58
2023-03-08T08:48:42.048Z,4.78
2023-03-08T08:51:12.857Z,4.93
2023-03-08T08:53:40.605Z,4.78
2023-03-08T08:56:23.801Z,4.50
2023-03-08T08:58:53.709Z,5.13
2023-03-08T09:01:23.706Z,5.78
2023-03-08T09:03:51.457Z,5.70
2023-03-08T09:06:20.907Z,5.10
2023-03-08T09:08:50.881Z,5.85
2023-03-08T09:11:18.334Z,6.45
2023-03-08T09:13:45.969Z,6.05
2023-03-08T09:16:16.216Z,5.47
2023-03-08T09:18:43.549Z,6.22
2023-03-08T09:21:11.797Z,6.22
2023-03-08T09:23:39.262Z,6.72
2023-03-08T09:26:06.847Z,7.38
2023-03-08T09:28:34.660Z,6.63
2023-03-08T09:31:12.004Z,7.20
2023-03-08T09:33:42.251Z,7.45
2023-03-08T09:36:10.301Z,7.97
2023-03-08T09:38:39.436Z,9.00
2023-03-08T09:41:21.952Z,9.90
2023-03-08T09:44:05.472Z,12.20
2023-03-08T09:46:40.920Z,10.73
2023-03-08T09:49:16.631Z,8.40
2023-03-08T09:51:47.929Z,7.90
2023-03-08T09:54:21.671Z,7.07
2023-03-08T09:56:51.454Z,7.03
2023-03-08T09:59:27.167Z,8.00
2023-03-08T10:01:57.748Z,7.50
2023-03-08T10:04:34.669Z,6.90
2023-03-08T10:07:15.622Z,7.60
2023-03-08T10:09:53.680Z,6.68
2023-03-08T10:12:32.431Z,7.65
2023-03-08T10:15:09.608Z,7.15
2023-03-08T10:17:46.792Z,6.13
2023-03-08T10:20:22.311Z,7.53
2023-03-08T10:22:58.270Z,5.60
2023-03-08T10:25:31.556Z,6.18
2023-03-08T10:28:02.288Z,6.43
2023-03-08T10:30:36.132Z,6.13
2023-03-08T10:35:38.833Z,5.82
2023-03-08T10:38:16.621Z,4.43
2023-03-08T10:40:44.226Z,5.10
2023-03-08T10:43:28.227Z,4.55
2023-03-08T10:48:24.659Z,4.80
2023-03-08T10:50:55.333Z,4.78
2023-03-08T10:53:24.438Z,4.63
2023-03-08T10:55:53.090Z,5.35
2023-03-08T10:58:27.738Z,5.18
2023-03-08T11:00:57.157Z,4.65
2023-03-08T11:03:26.056Z,5.70
2023-03-08T11:05:56.596Z,5.82
2023-03-08T11:08:27.542Z,5.35
2023-03-08T11:10:58.853Z,5.63
2023-03-08T11:13:31.867Z,5.50
2023-03-08T11:16:09.350Z,4.83
2023-03-08T11:19:03.857Z,5.38
2023-03-08T11:21:32.236Z,4.60
2023-03-08T11:24:18.612Z,5.15
2023-03-08T11:26:56.260Z,4.75
2023-03-08T11:29:37.146Z,4.10
2023-03-08T11:32:22.271Z,4.15
2023-03-08T11:34:57.442Z,4.80
2023-03-08T11:37:38.984Z,4.45
2023-03-08T11:40:14.786Z,4.53
2023-03-08T11:42:54.416Z,4.78
2023-03-08T11:45:29.967Z,4.75
2023-03-08T11:48:12.521Z,5.28
2023-03-08T11:50:49.803Z,4.57
2023-03-08T11:53:24.354Z,4.90
2023-03-08T11:55:55.414Z,4.88
2023-03-08T11:58:32.733Z,4.35
2023-03-08T12:01:02.947Z,4.55
2023-03-08T12:03:35.662Z,4.30
2023-03-08T12:06:19.407Z,4.43
2023-03-08T12:08:59.756Z,4.63
2023-03-08T12:11:32.252Z,5.07
2023-03-08T12:14:11.001Z,5.57
2023-03-08T12:16:46.519Z,4.82
2023-03-08T12:19:35.800Z,5.15
2023-03-08T12:22:14.871Z,5.72
2023-03-08T12:25:04.672Z,4.97
2023-03-08T12:27:35.597Z,5.15
2023-03-08T12:30:14.739Z,5.72
2023-03-08T12:32:44.216Z,5.82
2023-03-08T12:35:25.448Z,4.40
2023-03-08T12:37:56.891Z,4.75
2023-03-08T12:40:29.029Z,5.20
2023-03-08T12:42:59.687Z,4.82
2023-03-08T12:45:31.290Z,4.40
2023-03-08T12:48:08.889Z,5.00
2023-03-08T12:50:44.566Z,4.97
2023-03-08T12:53:15.347Z,3.92
2023-03-08T12:55:45.598Z,5.00
2023-03-08T12:58:17.723Z,5.63
2023-03-08T13:00:45.349Z,4.93
2023-03-08T13:03:36.327Z,5.28
2023-03-08T13:06:31.138Z,5.05
2023-03-08T13:09:03.382Z,4.30
2023-03-08T13:11:41.558Z,5.18
2023-03-08T13:14:12.130Z,4.82
2023-03-08T13:16:40.391Z,4.72
2023-03-08T13:19:29.247Z,4.65
2023-03-08T13:22:15.549Z,4.78
2023-03-08T13:24:50.217Z,4.90
2023-03-08T13:27:39.065Z,4.70
2023-03-08T13:30:19.507Z,5.45
2023-03-08T13:32:49.482Z,5.97
2023-03-08T13:35:18.319Z,4.93
2023-03-08T13:37:54.294Z,5.38
2023-03-08T13:40:23.269Z,6.43
2023-03-08T13:42:54.567Z,5.13
2023-03-08T13:45:22.688Z,6.15
2023-03-08T13:47:51.071Z,5.88
2023-03-08T13:50:24.922Z,6.53
2023-03-08T13:52:52.777Z,5.63
2023-03-08T13:55:25.010Z,5.88
2023-03-08T13:57:54.461Z,5.38
2023-03-08T14:00:27.467Z,4.97
2023-03-08T14:02:55.783Z,5.35
2023-03-08T14:05:27.787Z,4.95
2023-03-08T14:08:05.114Z,5.72
2023-03-08T14:10:39.145Z,5.72
2023-03-08T14:13:15.133Z,6.53
2023-03-08T14:15:51.138Z,6.07
2023-03-08T14:18:22.458Z,6.80
2023-03-08T14:20:53.243Z,6.55
2023-03-08T14:23:27.328Z,6.75
2023-03-08T14:25:57.448Z,6.93
2023-03-08T14:28:36.001Z,6.75
2023-03-08T14:31:03.762Z,6.60
2023-03-08T14:33:42.126Z,5.47
2023-03-08T14:36:10.576Z,6.30
2023-03-08T14:38:37.928Z,6.20
2023-03-08T14:41:06.774Z,6.40
2023-03-08T14:43:34.148Z,6.22
2023-03-08T14:46:05.320Z,6.88
2023-03-08T14:48:35.825Z,7.32
2023-03-08T14:51:06.923Z,6.43
2023-03-08T14:53:38.609Z,5.97
2023-03-08T14:56:09.481Z,6.70
2023-03-08T14:58:40.782Z,5.88
2023-03-08T15:01:08.339Z,7.15
2023-03-08T15:03:35.924Z,6.50
2023-03-08T15:06:12.847Z,6.40
2023-03-08T15:08:40.361Z,9.75
2023-03-08T15:11:08.196Z,6.50
2023-03-08T15:13:35.646Z,7.05
2023-03-08T15:16:02.990Z,7.55
2023-03-08T15:18:30.389Z,7.68
2023-03-08T15:20:58.097Z,7.30
2023-03-08T15:23:28.784Z,7.13
2023-03-08T15:25:57.339Z,8.48
2023-03-08T15:28:25.125Z,6.30
2023-03-08T15:30:55.011Z,8.15
2023-03-08T15:33:23.393Z,7.22
2023-03-08T15:35:52.036Z,6.25
2023-03-08T15:38:21.573Z,6.72
2023-03-08T15:40:48.908Z,5.25
2023-03-08T15:43:16.433Z,7.32
2023-03-08T15:45:43.944Z,5.93
2023-03-08T15:48:15.579Z,5.88
2023-03-08T15:50:44.375Z,5.40
2023-03-08T15:53:18.564Z,5.05
2023-03-08T15:55:53.643Z,5.32
2023-03-08T15:58:20.903Z,5.15
2023-03-08T16:00:49.171Z,5.30
2023-03-08T16:03:26.211Z,5.18
2023-03-08T16:05:53.918Z,4.85
2023-03-08T16:08:25.200Z,4.18
2023-03-08T16:10:52.840Z,4.05
2023-03-08T16:13:22.074Z,4.63
2023-03-08T16:15:49.748Z,3.58
2023-03-08T16:18:17.219Z,3.92
2023-03-08T16:20:46.398Z,3.67
2023-03-08T16:23:13.855Z,3.30
2023-03-08T16:25:43.729Z,3.95
2023-03-08T16:28:11.306Z,3.70
2023-03-08T16:30:41.210Z,3.17
2023-03-08T16:33:08.602Z,3.60
2023-03-08T16:35:36.114Z,4.03
2023-03-08T16:38:03.494Z,3.40
2023-03-08T16:40:33.156Z,3.53
2023-03-08T16:43:00.495Z,3.83
2023-03-08T16:45:27.901Z,3.50
2023-03-08T16:47:55.619Z,3.85
2023-03-08T16:50:24.616Z,3.38
2023-03-08T16:52:55.242Z,3.90
2023-03-08T16:55:23.046Z,4.13
2023-03-08T16:57:50.480Z,4.13
2023-03-08T17:00:18.319Z,4.05
2023-03-08T17:02:45.722Z,4.10
2023-03-08T17:05:13.268Z,3.67
2023-03-08T17:07:40.587Z,4.03
2023-03-08T17:10:09.163Z,3.38
2023-03-08T17:12:36.616Z,3.67
2023-03-08T17:15:04.907Z,3.45
2023-03-08T17:17:32.194Z,4.10
2023-03-08T17:20:01.078Z,3.60
2023-03-08T17:22:28.434Z,3.55
2023-03-08T17:24:55.953Z,4.30
2023-03-08T17:27:24.349Z,3.75
2023-03-08T17:29:51.766Z,4.00
2023-03-08T17:32:19.155Z,4.10
2023-03-08T17:34:46.652Z,3.35
2023-03-08T17:37:15.931Z,4.03
2023-03-08T17:39:43.377Z,3.35
2023-03-08T17:42:10.712Z,3.25
2023-03-08T17:44:38.148Z,3.65
2023-03-08T17:47:05.668Z,3.58
2023-03-08T17:49:33.554Z,3.90
2023-03-08T17:52:00.867Z,3.47
2023-03-08T17:54:28.223Z,3.40
2023-03-08T17:56:55.500Z,3.50
2023-03-08T17:59:23.032Z,3.67
2023-03-08T18:01:50.420Z,3.60
2023-03-08T18:04:19.146Z,3.70
2023-03-08T18:06:46.473Z,3.88
2023-03-08T18:09:16.321Z,3.58
2023-03-08T18:11:43.880Z,4.00
2023-03-08T18:14:14.328Z,3.75
2023-03-08T18:16:44.750Z,3.78
2023-03-08T18:19:12.438Z,3.88
2023-03-08T18:21:41.501Z,3.70
2023-03-08T18:24:12.463Z,4.35
2023-03-08T18:26:39.830Z,4.18
2023-03-08T18:29:07.831Z,3.95
2023-03-08T18:31:37.477Z,3.90
2023-03-08T18:34:06.032Z,3.10
2023-03-08T18:36:34.016Z,3.85
2023-03-08T18:39:04.608Z,4.15
2023-03-08T18:41:33.750Z,3.88
2023-03-08T18:44:01.767Z,3.33
2023-03-08T18:46:31.357Z,3.78
2023-03-08T18:49:01.656Z,4.63
2023-03-08T18:51:30.357Z,3.92
2023-03-08T18:53:59.393Z,4.13
2023-03-08T18:56:28.023Z,4.35
2023-03-08T18:58:58.137Z,4.30
2023-03-08T19:01:26.096Z,4.50
2023-03-08T19:03:53.534Z,4.25
2023-03-08T19:06:21.137Z,4.35
2023-03-08T19:08:48.466Z,3.90
2023-03-08T19:11:19.970Z,4.00
2023-03-08T19:13:48.701Z,4.57
2023-03-08T19:16:19.773Z,5.78
2023-03-08T19:18:48.396Z,5.07
2023-03-08T19:21:18.594Z,6.30
2023-03-08T19:23:46.339Z,4.70
2023-03-08T19:26:19.037Z,6.18
2023-03-08T19:28:46.459Z,5.93
2023-03-08T19:31:17.579Z,6.57
2023-03-08T19:33:50.054Z,4.90
2023-03-08T19:36:17.447Z,6.30
2023-03-08T19:38:44.869Z,5.60
2023-03-08T19:41:13.812Z,5.28
2023-03-08T19:43:41.180Z,5.63
2023-03-08T19:46:09.732Z,5.43
2023-03-08T19:48:37.200Z,6.22
2023-03-08T19:51:04.951Z,6.25
2023-03-08T19:53:32.339Z,6.57
2023-03-08T19:55:59.832Z,7.05
2023-03-08T19:58:27.181Z,5.93
2023-03-08T20:01:03.488Z,6.38
2023-03-08T20:03:31.314Z,6.95
2023-03-08T20:05:58.933Z,7.53
2023-03-08T20:08:26.756Z,6.93
2023-03-08T20:10:54.165Z,7.47
2023-03-08T20:13:21.702Z,7.32
2023-03-08T20:15:49.241Z,7.13
2023-03-08T20:18:16.687Z,7.00
2023-03-08T20:20:45.100Z,7.63
2023-03-08T20:23:12.556Z,6.88
2023-03-08T20:25:43.035Z,8.63
2023-03-08T20:28:11.551Z,7.75
2023-03-08T20:30:39.782Z,7.82
2023-03-08T20:33:07.775Z,7.80
2023-03-08T20:35:35.368Z,9.70
2023-03-08T20:38:02.968Z,8.98
2023-03-08T20:40:30.599Z,8.82
2023-03-08T20:42:58.553Z,8.73
2023-03-08T20:45:27.373Z,9.48
2023-03-08T20:47:57.470Z,9.88
2023-03-08T20:50:27.024Z,8.85
2023-03-08T20:52:54.788Z,10.23
2023-03-08T20:55:22.174Z,9.95
2023-03-08T20:57:53.044Z,8.93
2023-03-08T21:00:20.794Z,9.38
2023-03-08T21:02:48.099Z,9.68
2023-03-08T21:05:15.605Z,10.45
2023-03-08T21:07:43.108Z,9.70
2023-03-08T21:10:11.196Z,10.77
2023-03-08T21:12:39.195Z,11.32
2023-03-08T21:15:07.348Z,10.82
2023-03-08T21:17:36.811Z,10.70
2023-03-08T21:20:05.651Z,10.68
2023-03-08T21:22:33.179Z,11.27
2023-03-08T21:25:00.506Z,10.52
2023-03-08T21:27:27.857Z,10.07
2023-03-08T21:29:55.868Z,11.07
2023-03-08T21:32:23.334Z,12.55
2023-03-08T21:34:50.763Z,11.15
2023-03-08T21:37:19.272Z,10.82
2023-03-08T21:39:46.596Z,10.77
2023-03-08T21:42:15.136Z,11.55
2023-03-08T21:44:42.578Z,12.68
2023-03-08T21:47:09.976Z,11.63
2023-03-08T21:49:37.376Z,11.55
2023-03-08T21:52:05.251Z,11.27
2023-03-08T21:54:32.838Z,11.95
2023-03-08T21:57:00.334Z,12.52
2023-03-08T21:59:29.921Z,11.63
2023-03-08T22:01:58.985Z,11.15
2023-03-08T22:04:27.375Z,11.13
2023-03-08T22:06:56.025Z,11.38
2023-03-08T22:09:26.856Z,12.63
2023-03-08T22:11:54.545Z,10.98
2023-03-08T22:14:22.000Z,11.68
2023-03-08T22:16:49.279Z,11.80
2023-03-08T22:19:18.125Z,11.20
2023-03-08T22:21:45.685Z,11.98
2023-03-08T22:24:13.064Z,12.30
2023-03-08T22:26:40.401Z,10.57
2023-03-08T22:29:07.920Z,10.93
2023-03-08T22:31:35.554Z,11.50
2023-03-08T22:34:03.189Z,11.63
2023-03-08T22:36:30.566Z,11.82
2023-03-08T22:38:57.994Z,10.93
2023-03-08T22:41:27.815Z,11.93
2023-03-08T22:43:55.548Z,11.23
2023-03-08T22:46:25.735Z,11.32
2023-03-08T22:48:54.628Z,11.18
2023-03-08T22:51:22.837Z,11.00
2023-03-08T22:53:50.607Z,11.63
2023-03-08T22:56:22.176Z,10.50
2023-03-08T22:58:50.608Z,9.98
2023-03-08T23:01:21.022Z,10.93
2023-03-08T23:03:49.968Z,13.05
2023-03-08T23:06:18.836Z,10.75
2023-03-08T23:08:47.541Z,10.93
2023-03-08T23:11:15.425Z,11.63
2023-03-08T23:13:43.188Z,12.30
2023-03-08T23:16:13.861Z,10.63
2023-03-08T23:18:42.418Z,11.68
2023-03-08T23:21:13.468Z,11.52
2023-03-08T23:23:40.995Z,10.98
2023-03-08T23:26:12.080Z,11.57
2023-03-08T23:28:39.669Z,10.18
2023-03-08T23:31:09.668Z,11.65
2023-03-08T23:33:37.179Z,12.35
2023-03-08T23:36:05.016Z,10.75
2023-03-08T23:38:32.490Z,12.60
2023-03-08T23:41:03.219Z,13.80
2023-03-08T23:43:30.772Z,12.35
2023-03-08T23:45:58.115Z,12.57
2023-03-08T23:48:25.541Z,12.77
2023-03-08T23:50:52.969Z,12.23
2023-03-08T23:53:20.640Z,13.90
2023-03-08T23:55:47.920Z,13.35
2023-03-08T23:58:15.392Z,15.23
